Time;durP1;ratioP1;P1;durP2;ratioP2;P2;SDS_P1;SDS_P2;PMS_P1;PMS_P2;Temp;Humidity;BMP_temperature;BMP_pressure;BME280_temperature;BME280_humidity;BME280_pressure;Samples;Min_cycle;Max_cycle;Signal;HPM_P1;HPM_P2
2022/10/21 00:02:53;;;;;;;1999.90;999.90;;;14.10;99.90;;;;;;6740727;88;20790;-77
2022/10/21 00:12:54;;;;;;;1999.90;999.90;;;14.20;99.90;;;;;;6738489;88;20724;-77
2022/10/21 00:22:54;;;;;;;1999.90;999.90;;;14.20;99.90;;;;;;6733315;88;20241;-76
2022/10/21 00:32:55;;;;;;;1999.90;999.90;;;14.30;99.90;;;;;;6735314;88;20373;-76
2022/10/21 00:42:55;;;;;;;1999.90;999.90;;;14.50;99.90;;;;;;6736575;88;20181;-77
2022/10/21 00:52:57;;;;;;;1999.90;999.90;;;14.60;99.90;;;;;;6737027;88;20311;-77
2022/10/21 01:02:58;;;;;;;1999.90;999.90;;;14.50;99.90;;;;;;6737377;88;20185;-77
2022/10/21 01:13:18;;;;;;;1999.90;999.90;;;14.60;99.90;;;;;;6741507;88;20240;-77
2022/10/21 01:23:27;;;;;;;1999.90;999.90;;;14.50;99.90;;;;;;6735792;88;20235;-77
2022/10/21 01:33:46;;;;;;;1999.90;999.90;;;14.50;99.90;;;;;;6751590;88;20185;-78
2022/10/21 01:43:51;;;;;;;1999.90;999.90;;;14.40;99.90;;;;;;6738209;88;20702;-77
2022/10/21 01:54:01;;;;;;;1999.90;999.90;;;14.30;99.90;;;;;;6738603;88;20179;-77
2022/10/21 02:04:04;;;;;;;1999.90;999.90;;;14.30;99.90;;;;;;6735949;88;20189;-77
2022/10/21 02:14:11;;;;;;;1999.90;999.90;;;14.40;99.90;;;;;;6732416;88;20196;-76
2022/10/21 02:24:25;;;;;;;1999.90;999.90;;;14.40;99.90;;;;;;6729480;88;20222;-77
2022/10/21 02:34:44;;;;;;;1999.90;999.90;;;14.40;99.90;;;;;;6734083;88;20323;-77
2022/10/21 02:44:44;;;;;;;1999.90;999.90;;;14.50;99.90;;;;;;6731374;88;20271;-76
2022/10/21 02:54:45;;;;;;;1999.90;999.90;;;14.40;99.90;;;;;;6733436;88;20200;-76
2022/10/21 03:04:45;;;;;;;1999.90;999.90;;;14.40;99.90;;;;;;6734248;88;20221;-76
2022/10/21 03:14:46;;;;;;;1999.90;999.90;;;14.40;99.90;;;;;;6737223;88;20201;-77
2022/10/21 03:24:46;;;;;;;1999.90;999.90;;;14.40;99.90;;;;;;6736736;88;20194;-77
2022/10/21 03:34:47;;;;;;;1999.90;999.90;;;14.40;99.90;;;;;;6736504;88;20276;-78
2022/10/21 03:44:47;;;;;;;1999.90;999.90;;;14.30;99.90;;;;;;6729751;88;20189;-77
2022/10/21 04:04:51;;;;;;;1999.90;999.90;;;14.40;99.90;;;;;;6727853;88;20261;-79
2022/10/21 04:14:52;;;;;;;1999.90;999.90;;;14.40;99.90;;;;;;6725000;88;20257;-79
2022/10/21 04:24:52;;;;;;;1999.90;999.90;;;14.40;99.90;;;;;;6727557;88;20214;-80
2022/10/21 04:34:53;;;;;;;1999.90;999.90;;;14.50;99.90;;;;;;6729063;88;20215;-79
2022/10/21 04:44:53;;;;;;;1999.90;999.90;;;14.50;99.90;;;;;;6720921;88;20197;-80
2022/10/21 04:54:54;;;;;;;1999.90;999.90;;;14.60;99.90;;;;;;6724037;88;20212;-80
2022/10/21 05:04:54;;;;;;;1999.90;999.90;;;14.60;99.90;;;;;;6730340;88;20898;-80
2022/10/21 05:14:55;;;;;;;1999.90;999.90;;;14.70;99.90;;;;;;6737356;88;20691;-77
2022/10/21 05:24:55;;;;;;;1999.90;999.90;;;14.60;99.90;;;;;;6739768;88;20178;-81
2022/10/21 05:34:56;;;;;;;1999.90;999.90;;;14.60;99.90;;;;;;6738643;88;20199;-78
2022/10/21 05:44:56;;;;;;;1999.90;999.90;;;14.50;99.90;;;;;;6739560;88;20272;-78
2022/10/21 05:54:57;;;;;;;1999.90;999.90;;;14.50;99.90;;;;;;6731109;88;20223;-79
2022/10/21 06:04:57;;;;;;;1999.90;999.90;;;14.40;99.90;;;;;;6732203;88;20178;-78
2022/10/21 06:14:58;;;;;;;1999.90;999.90;;;14.40;99.90;;;;;;6726774;88;20393;-79
2022/10/21 06:24:58;;;;;;;1999.90;999.90;;;14.50;99.90;;;;;;6722531;88;20220;-80
2022/10/21 06:34:59;;;;;;;1999.90;999.90;;;14.60;99.90;;;;;;6727890;88;20320;-79
2022/10/21 06:44:59;;;;;;;1999.90;999.90;;;14.70;99.90;;;;;;6733329;88;20665;-80
2022/10/21 06:55:00;;;;;;;1999.90;999.90;;;14.70;99.90;;;;;;6738339;88;20222;-79
2022/10/21 07:05:00;;;;;;;1999.90;999.90;;;14.70;99.90;;;;;;6727567;88;20219;-80
2022/10/21 07:15:01;;;;;;;1999.90;999.90;;;14.70;99.90;;;;;;6735549;88;20189;-80
2022/10/21 07:25:02;;;;;;;1999.90;999.90;;;14.80;99.90;;;;;;6736023;88;20299;-80
2022/10/21 07:35:03;;;;;;;1999.90;999.90;;;14.90;99.90;;;;;;6729937;88;20319;-78
2022/10/21 07:45:04;;;;;;;1999.90;999.90;;;15.00;99.90;;;;;;6733102;88;20186;-79
2022/10/21 07:55:05;;;;;;;1999.90;999.90;;;15.00;99.90;;;;;;6734321;88;20221;-78
2022/10/21 08:05:06;;;;;;;1999.90;999.90;;;15.00;99.90;;;;;;6737384;88;20199;-78
2022/10/21 08:15:07;;;;;;;1999.90;999.90;;;15.00;99.90;;;;;;6724514;88;20327;-79
2022/10/21 08:25:07;;;;;;;1999.90;999.90;;;15.00;99.90;;;;;;6728814;88;20209;-78
2022/10/21 08:35:08;;;;;;;1999.90;999.90;;;14.80;99.90;;;;;;6702531;88;20291;-79
2022/10/21 08:45:22;;;;;;;1999.90;999.90;;;14.80;99.90;;;;;;6737789;88;20162;-79
2022/10/21 08:55:31;;;;;;;1999.90;999.90;;;14.80;99.90;;;;;;6731150;88;20219;-79
2022/10/21 09:06:10;;;;;;;1999.90;999.90;;;14.90;99.90;;;;;;6738773;88;20206;-80
2022/10/21 09:16:42;;;;;;;1999.90;999.90;;;14.90;99.90;;;;;;6741879;88;20224;-80
2022/10/21 09:26:46;;;;;;;1999.90;999.90;;;14.90;99.90;;;;;;6737164;88;20821;-79
2022/10/21 09:36:48;;;;;;;1999.90;999.90;;;14.90;99.90;;;;;;6733426;88;20210;-79
2022/10/21 09:46:51;;;;;;;1999.90;999.90;;;15.00;99.90;;;;;;6735437;88;20233;-79
2022/10/21 10:06:57;;;;;;;1999.90;999.90;;;15.10;99.90;;;;;;6750375;88;20225;-79
2022/10/21 10:17:18;;;;;;;1999.90;999.90;;;15.10;99.90;;;;;;6736301;88;20169;-78
2022/10/21 10:27:22;;;;;;;1999.90;999.90;;;15.20;99.90;;;;;;6735483;88;20488;-79
2022/10/21 10:37:26;;;;;;;1999.90;999.90;;;15.30;99.90;;;;;;6731877;88;20324;-78
2022/10/21 10:47:30;;;;;;;1999.90;999.90;;;15.40;99.90;;;;;;6732414;88;20217;-77
2022/10/21 10:57:30;;;;;;;1999.90;999.90;;;15.50;99.90;;;;;;6732867;88;20212;-78
2022/10/21 11:07:38;;;;;;;1999.90;999.90;;;15.60;99.90;;;;;;6738014;88;20990;-78
2022/10/21 11:17:44;;;;;;;1999.90;999.90;;;15.80;99.90;;;;;;6732750;88;20617;-78
2022/10/21 11:27:51;;;;;;;1999.90;999.90;;;16.00;99.90;;;;;;6735215;88;20390;-78
2022/10/21 11:38:11;;;;;;;1999.90;999.90;;;16.20;99.90;;;;;;6743004;88;20185;-76
2022/10/21 11:48:35;;;;;;;1999.90;999.90;;;16.60;99.90;;;;;;6741026;88;20184;-78
2022/10/21 11:59:23;;;;;;;1999.90;999.90;;;16.90;99.90;;;;;;6743756;88;20228;-79
2022/10/21 12:09:38;;;;;;;1999.90;999.90;;;18.10;99.90;;;;;;6709173;88;20262;-80
2022/10/21 12:19:39;;;;;;;;;;;19.00;99.90;;;;;;6735472;88;20244;-79
2022/10/21 12:29:46;;;;;;;1999.90;999.90;;;19.40;99.90;;;;;;6735182;88;20077;-81
2022/10/21 12:39:49;;;;;;;1999.90;999.90;;;18.60;99.90;;;;;;6735275;88;20213;-79
2022/10/21 12:50:13;;;;;;;1999.90;999.90;;;18.60;99.90;;;;;;6730515;88;20273;-80
2022/10/21 13:00:28;;;;;;;1999.90;999.90;;;18.60;99.90;;;;;;6738778;88;20185;-79
2022/10/21 13:10:29;;;;;;;1999.90;999.90;;;18.60;99.90;;;;;;6726631;88;20226;-78
2022/10/21 13:20:32;;;;;;;1999.90;999.90;;;19.30;99.90;;;;;;6731345;88;20188;-78
2022/10/21 13:30:35;;;;;;;1999.90;999.90;;;19.30;99.90;;;;;;6725969;88;20315;-79
2022/10/21 13:40:46;;;;;;;1999.90;999.90;;;19.40;99.90;;;;;;6730914;88;20212;-79
2022/10/21 13:50:48;;;;;;;1999.90;999.90;;;19.60;99.90;;;;;;6730437;88;20194;-78
2022/10/21 14:00:49;;;;;;;1999.90;999.90;;;20.20;99.90;;;;;;6729370;88;20182;-79
2022/10/21 14:10:50;;;;;;;1999.90;999.90;;;20.10;99.90;;;;;;6730412;88;20196;-80
2022/10/21 14:20:52;;;;;;;1999.90;999.90;;;19.60;99.90;;;;;;6732844;88;20226;-77
2022/10/21 14:30:53;;;;;;;1999.90;999.90;;;19.50;99.90;;;;;;6730349;88;20735;-79
2022/10/21 14:41:01;;;;;;;1999.90;999.90;;;20.10;99.90;;;;;;6731128;88;20206;-78
2022/10/21 14:51:10;;;;;;;1999.90;999.90;;;20.20;99.90;;;;;;6727029;88;20669;-79
2022/10/21 15:01:15;;;;;;;1999.90;999.90;;;19.80;99.90;;;;;;6729169;88;20198;-77
2022/10/21 15:11:19;;;;;;;1999.90;999.90;;;19.30;99.90;;;;;;6727905;88;20726;-78
2022/10/21 15:21:51;;;;;;;1999.90;999.90;;;19.40;99.90;;;;;;6723609;88;20220;-79
2022/10/21 15:31:54;;;;;;;1999.90;999.90;;;19.30;99.90;;;;;;6718062;88;20189;-78
2022/10/21 15:41:56;;;;;;;1999.90;999.90;;;19.00;99.90;;;;;;6730025;88;20193;-78
2022/10/21 15:51:56;;;;;;;1999.90;999.90;;;18.70;99.90;;;;;;6723877;88;20733;-78
2022/10/21 16:01:58;;;;;;;1999.90;999.90;;;18.60;99.90;;;;;;6723413;76;20191;-79
2022/10/21 16:11:59;;;;;;;1999.90;999.90;;;18.40;99.90;;;;;;6699684;88;20250;-79
2022/10/21 16:22:00;;;;;;;1999.90;999.90;;;17.90;99.90;;;;;;6705707;88;20190;-79
2022/10/21 16:32:01;;;;;;;1999.90;999.90;;;17.80;99.90;;;;;;6697687;88;20770;-78
2022/10/21 16:42:01;;;;;;;1999.90;999.90;;;17.50;99.90;;;;;;6695125;88;20612;-77
2022/10/21 16:52:02;;;;;;;1999.90;999.90;;;17.20;99.90;;;;;;6702574;88;20194;-77
2022/10/21 17:02:02;;;;;;;1999.90;999.90;;;17.10;99.90;;;;;;6704450;88;20199;-78
2022/10/21 17:12:03;;;;;;;1999.90;999.90;;;17.10;99.90;;;;;;6705062;88;20220;-79
2022/10/21 17:22:04;;;;;;;1999.90;999.90;;;17.00;99.90;;;;;;6716305;88;20189;-79
2022/10/21 17:32:04;;;;;;;1999.90;999.90;;;16.90;99.90;;;;;;6716977;88;20206;-77
2022/10/21 17:42:05;;;;;;;1999.90;999.90;;;16.90;99.90;;;;;;6697945;88;20198;-80
2022/10/21 17:52:06;;;;;;;1999.90;999.90;;;16.70;99.90;;;;;;6713820;88;20218;-79
2022/10/21 18:02:07;;;;;;;1999.90;999.90;;;16.50;99.90;;;;;;6710897;88;21020;-79
2022/10/21 18:12:09;;;;;;;1999.90;999.90;;;16.40;99.90;;;;;;6712904;88;20197;-79
2022/10/21 18:22:10;;;;;;;1999.90;999.90;;;16.30;99.90;;;;;;6707233;88;20210;-80
2022/10/21 18:32:11;;;;;;;1999.90;999.90;;;16.20;99.90;;;;;;6713509;88;20301;-79
2022/10/21 18:42:11;;;;;;;1999.90;999.90;;;15.90;99.90;;;;;;6712946;88;20193;-79
2022/10/21 18:52:12;;;;;;;1999.90;999.90;;;15.70;99.90;;;;;;6716214;88;20284;-81
2022/10/21 19:02:19;;;;;;;1999.90;999.90;;;15.70;99.90;;;;;;6723924;88;20194;-82
2022/10/21 19:12:20;;;;;;;1999.90;999.90;;;15.40;99.90;;;;;;6729817;88;20240;-82
2022/10/21 19:22:22;;;;;;;1999.90;999.90;;;15.10;99.90;;;;;;6723224;88;20274;-80
2022/10/21 19:32:22;;;;;;;1999.90;999.90;;;14.90;99.90;;;;;;6709299;88;20301;-79
2022/10/21 19:42:23;;;;;;;1999.90;999.90;;;14.90;99.90;;;;;;6724787;88;20713;-81
2022/10/21 19:52:23;;;;;;;1999.90;999.90;;;15.00;99.90;;;;;;6716853;88;20185;-80
2022/10/21 20:02:24;;;;;;;1999.90;999.90;;;15.10;99.90;;;;;;6713208;88;20203;-80
2022/10/21 20:12:24;;;;;;;1999.90;999.90;;;15.20;99.90;;;;;;6714823;88;20202;-81
2022/10/21 20:22:25;;;;;;;1999.90;999.90;;;15.30;99.90;;;;;;6715134;88;20774;-79
2022/10/21 20:32:26;;;;;;;1999.90;999.90;;;15.30;99.90;;;;;;6715383;88;20776;-79
2022/10/21 20:42:26;;;;;;;1999.90;999.90;;;15.30;99.90;;;;;;6712604;88;20549;-79
2022/10/21 20:52:28;;;;;;;1999.90;999.90;;;15.30;99.90;;;;;;6710212;88;20820;-79
2022/10/21 21:02:28;;;;;;;1999.90;999.90;;;15.20;99.90;;;;;;6714955;88;20705;-78
2022/10/21 21:12:29;;;;;;;1999.90;999.90;;;15.10;99.90;;;;;;6723294;88;20368;-79
2022/10/21 21:22:29;;;;;;;1999.90;999.90;;;15.10;99.90;;;;;;6712800;88;20226;-79
2022/10/21 21:32:30;;;;;;;1999.90;999.90;;;15.00;99.90;;;;;;6704689;88;20282;-79
2022/10/21 21:42:30;;;;;;;1999.90;999.90;;;15.00;99.90;;;;;;6710539;88;20228;-80
2022/10/21 21:52:31;;;;;;;1999.90;999.90;;;15.30;99.90;;;;;;6720433;88;20206;-79
2022/10/21 22:02:31;;;;;;;1999.90;999.90;;;15.40;99.90;;;;;;6726957;76;20197;-78
2022/10/21 22:12:32;;;;;;;1999.90;999.90;;;15.40;99.90;;;;;;6730287;88;20211;-78
2022/10/21 22:22:33;;;;;;;1999.90;999.90;;;15.30;99.90;;;;;;6732573;88;20198;-79
2022/10/21 22:32:34;;;;;;;1999.90;999.90;;;15.20;99.90;;;;;;6733650;88;20597;-78
2022/10/21 22:42:35;;;;;;;1999.90;999.90;;;15.20;99.90;;;;;;6731776;88;20255;-78
2022/10/21 22:52:35;;;;;;;1999.90;999.90;;;15.40;99.90;;;;;;6733099;88;20220;-78
2022/10/21 23:02:36;;;;;;;1999.90;999.90;;;15.40;99.90;;;;;;6736511;88;20234;-79
2022/10/21 23:12:37;;;;;;;1999.90;999.90;;;15.40;99.90;;;;;;6739350;88;20224;-78
2022/10/21 23:22:37;;;;;;;1999.90;999.90;;;15.20;99.90;;;;;;6737064;88;20633;-78
2022/10/21 23:32:38;;;;;;;1999.90;999.90;;;15.10;99.90;;;;;;6731766;88;20237;-79
2022/10/21 23:42:39;;;;;;;1999.90;999.90;;;15.00;99.90;;;;;;6727635;88;20597;-78
2022/10/21 23:52:40;;;;;;;1999.90;999.90;;;15.10;99.90;;;;;;6731149;88;20189;-78
